Melilla, Spain
Current Conditions -  °F | °C
As of 5:46 PM on Saturday 22 Nov 2014 (Local Time) from GEML Reporting Station
Haze Haze  
Wind Chill: 79°   Ceiling: Unl
Heat Index: 79°   Visibility: 2.5mi
Dew Point: 46°   Wind: 14mph
Humidity: 32%   Direction: 150°SSE
Pressure: 29.8"   Gusts: NA
Location:  35.29°N, 2.94°W
Report Text: GEML 221646Z 15012KT 120V180 4000 HZ NSC 26/08 Q1009
Loading
Personal Weather Stations






























Interactive Weather Map New forecast layout! Learn more

10-Day Weather Forecast

Advertisements
Track Severe Weather on mobile